Terminal Aerodrome Forecast
Issued by NWS

Home | Current Version | Previous Version | Text Only | Print | Product List | Glossary On
Versions: 1 2 3 4 5 6 7 8 9 10 11 12 13 14 15
000
FTUS46 KSEW 061720
TAFCLM
TAF
KCLM 061720Z 0618/0718 31008KT P6SM SCT010
     FM062200 28012KT P6SM SCT200
     FM070800 28007KT P6SM SCT005 SCT200
     FM071000 28007KT 5SM BR BKN005
     FM071700 31008KT P6SM SCT010=

USA.gov is the U.S. government's official web portal to all federal, state and local government web resources and services.